Time;durP1;ratioP1;P1;durP2;ratioP2;P2;SDS_P1;SDS_P2;PMS_P1;PMS_P2;Temp;Humidity;BMP_temperature;BMP_pressure;BME280_temperature;BME280_humidity;BME280_pressure;Samples;Min_cycle;Max_cycle;Signal;HPM_P1;HPM_P2
2022/03/29 00:02:10;;;;;;;5.15;4.35;;;15.90;60.50;;;;;;5031433;28;20053;-67
2022/03/29 00:04:37;;;;;;;4.80;4.30;;;;;;;;;;5032579;28;20046;-67
2022/03/29 00:07:04;;;;;;;5.10;4.40;;;;;;;;;;5026046;28;20046;-68
2022/03/29 00:09:31;;;;;;;5.38;4.63;;;16.20;61.00;;;;;;5011140;28;20057;-67
2022/03/29 00:11:58;;;;;;;5.82;4.60;;;;;;;;;;5011151;28;20054;-67
2022/03/29 00:14:24;;;;;;;5.28;4.40;;;15.60;60.70;;;;;;5012702;28;20050;-67
2022/03/29 00:16:52;;;;;;;5.75;4.50;;;15.60;60.40;;;;;;5012374;28;20050;-67
2022/03/29 00:19:20;;;;;;;5.10;4.32;;;15.70;53.70;;;;;;5012588;28;20052;-68
2022/03/29 00:21:47;;;;;;;4.95;4.20;;;15.70;60.70;;;;;;5012193;28;20588;-67
2022/03/29 00:24:14;;;;;;;4.80;4.05;;;;;;;;;;5026541;28;20071;-69
2022/03/29 00:26:41;;;;;;;5.32;4.40;;;15.70;60.70;;;;;;5032196;28;20076;-67
2022/03/29 00:29:09;;;;;;;5.07;4.30;;;16.40;60.80;;;;;;5032317;28;20052;-67
2022/03/29 00:31:35;;;;;;;5.32;4.05;;;15.60;60.70;;;;;;5031554;28;20045;-68
2022/03/29 00:34:02;;;;;;;5.50;3.92;;;;;;;;;;5032217;28;20127;-68
2022/03/29 00:36:31;;;;;;;4.70;4.18;;;15.50;60.40;;;;;;5030872;28;20412;-67
2022/03/29 00:38:57;;;;;;;6.80;4.45;;;15.60;60.80;;;;;;5030113;28;20061;-68
2022/03/29 00:41:24;;;;;;;5.93;4.63;;;;;;;;;;5031761;28;20045;-69
2022/03/29 00:43:51;;;;;;;6.65;5.40;;;15.50;60.70;;;;;;5031892;28;20427;-67
2022/03/29 00:46:18;;;;;;;5.47;4.40;;;15.70;60.50;;;;;;5031786;28;20049;-68
2022/03/29 00:48:45;;;;;;;5.57;4.35;;;15.60;60.70;;;;;;5031491;28;20100;-67
2022/03/29 00:51:12;;;;;;;4.97;4.00;;;15.20;60.50;;;;;;5030327;28;20649;-67
2022/03/29 00:53:41;;;;;;;5.80;4.50;;;15.60;57.20;;;;;;5031622;28;20056;-68
2022/03/29 00:56:08;;;;;;;6.80;4.70;;;15.50;60.70;;;;;;5030314;28;20053;-67
2022/03/29 00:58:35;;;;;;;6.03;4.22;;;;;;;;;;5030510;28;20053;-69
2022/03/29 01:01:02;;;;;;;5.57;4.32;;;15.40;60.40;;;;;;5031265;28;20492;-67
2022/03/29 01:03:30;;;;;;;5.40;4.50;;;15.40;60.40;;;;;;5031979;28;20142;-67
2022/03/29 01:05:57;;;;;;;5.63;4.47;;;;;;;;;;5030770;28;20061;-67
2022/03/29 01:08:25;;;;;;;5.93;4.65;;;;;;;;;;5031498;28;20050;-68
2022/03/29 01:10:53;;;;;;;5.95;4.13;;;15.50;60.80;;;;;;5029560;28;20049;-67
2022/03/29 01:13:20;;;;;;;5.45;4.18;;;15.60;60.70;;;;;;5030153;28;20124;-67
2022/03/29 01:15:49;;;;;;;5.80;5.03;;;;;;;;;;5013819;28;20419;-68
2022/03/29 01:18:16;;;;;;;5.35;4.30;;;15.50;55.80;;;;;;5031742;28;20077;-67
2022/03/29 01:20:43;;;;;;;5.55;4.28;;;15.50;60.50;;;;;;5030232;28;20654;-67
2022/03/29 01:23:11;;;;;;;6.20;4.60;;;15.50;60.60;;;;;;5031301;28;20507;-67
2022/03/29 01:25:38;;;;;;;5.45;4.57;;;15.50;57.10;;;;;;5030456;28;20412;-67
2022/03/29 01:28:06;;;;;;;5.95;4.93;;;15.50;60.60;;;;;;5027012;28;20050;-67
2022/03/29 01:30:32;;;;;;;5.97;4.63;;;15.50;60.80;;;;;;5029903;28;20050;-67
2022/03/29 01:33:00;;;;;;;5.05;4.15;;;;;;;;;;5031233;28;20535;-67
2022/03/29 01:35:27;;;;;;;6.28;4.45;;;15.40;57.10;;;;;;5030429;28;20053;-67
2022/03/29 01:37:54;;;;;;;7.30;4.63;;;;;;;;;;5030186;28;20103;-69
2022/03/29 01:40:23;;;;;;;6.22;4.90;;;15.40;60.80;;;;;;5031002;28;20411;-67
2022/03/29 01:42:51;;;;;;;5.57;4.72;;;15.40;53.30;;;;;;5028413;28;20061;-68
2022/03/29 01:45:18;;;;;;;5.97;4.90;;;15.00;60.30;;;;;;5033808;28;20139;-67
2022/03/29 01:47:45;;;;;;;6.80;4.75;;;15.10;59.10;;;;;;5033887;28;20057;-68
2022/03/29 01:50:12;;;;;;;6.53;5.20;;;15.50;60.80;;;;;;5034914;28;20049;-67
2022/03/29 01:52:40;;;;;;;6.00;4.93;;;15.40;53.30;;;;;;5035078;28;20049;-67
2022/03/29 01:55:07;;;;;;;6.97;4.93;;;15.40;58.60;;;;;;5035192;28;20099;-68
2022/03/29 01:57:35;;;;;;;6.53;5.22;;;15.40;53.30;;;;;;5017647;28;20408;-68
2022/03/29 02:02:47;;;;;;;5.75;5.15;;;16.30;61.10;;;;;;5033822;28;20073;-67
2022/03/29 02:05:13;;;;;;;7.60;5.22;;;14.90;60.30;;;;;;5033408;28;20423;-67
2022/03/29 02:07:40;;;;;;;7.70;5.60;;;14.70;60.20;;;;;;5034663;28;20059;-67
2022/03/29 02:10:07;;;;;;;6.47;4.88;;;15.40;57.20;;;;;;5033242;28;20057;-68
2022/03/29 02:12:34;;;;;;;6.97;5.43;;;15.30;60.80;;;;;;5034719;28;20052;-67
2022/03/29 02:15:03;;;;;;;7.63;5.88;;;15.40;57.60;;;;;;5032076;28;20054;-68
2022/03/29 02:17:31;;;;;;;6.25;5.25;;;15.60;60.50;;;;;;5033345;28;20057;-67
2022/03/29 02:19:58;;;;;;;7.05;5.68;;;15.40;60.40;;;;;;5033220;28;20511;-68
2022/03/29 02:22:24;;;;;;;5.90;5.18;;;14.90;60.10;;;;;;5034321;28;20080;-67
2022/03/29 02:24:52;;;;;;;6.88;5.55;;;15.50;55.90;;;;;;5034495;28;20054;-67
2022/03/29 02:27:19;;;;;;;6.07;5.28;;;;;;;;;;5034434;28;20082;-67
2022/03/29 02:29:46;;;;;;;6.72;5.68;;;15.40;60.60;;;;;;5034407;28;20075;-67
2022/03/29 02:32:14;;;;;;;7.72;5.70;;;15.30;60.60;;;;;;5031079;28;20057;-67
2022/03/29 02:34:41;;;;;;;7.53;5.90;;;;;;;;;;5033160;28;20149;-68
2022/03/29 02:37:08;;;;;;;6.80;5.32;;;15.50;60.30;;;;;;5033342;28;20049;-68
2022/03/29 02:39:35;;;;;;;7.03;5.63;;;15.30;60.40;;;;;;5033007;28;20083;-67
2022/03/29 02:42:02;;;;;;;6.20;5.25;;;;;;;;;;5033923;28;20522;-68
2022/03/29 02:44:28;;;;;;;8.20;5.50;;;15.50;60.50;;;;;;5033974;28;20514;-68
2022/03/29 02:46:56;;;;;;;6.22;5.38;;;15.50;60.50;;;;;;5032358;28;20045;-67
2022/03/29 02:49:24;;;;;;;5.85;5.10;;;15.50;56.90;;;;;;5033738;28;20064;-68
2022/03/29 02:51:52;;;;;;;6.47;5.22;;;;;;;;;;5033913;28;20493;-67
2022/03/29 02:54:20;;;;;;;7.40;5.70;;;15.60;57.60;;;;;;5032547;28;20506;-67
2022/03/29 02:56:46;;;;;;;7.30;5.78;;;15.50;60.10;;;;;;5032911;28;20053;-67
2022/03/29 02:59:13;;;;;;;8.10;5.75;;;15.50;60.30;;;;;;5033764;28;20419;-67
2022/03/29 03:01:40;;;;;;;6.63;5.45;;;15.60;56.70;;;;;;5033346;28;20049;-68
2022/03/29 03:04:07;;;;;;;7.55;5.95;;;15.50;60.00;;;;;;5018424;28;20049;-67
2022/03/29 03:06:35;;;;;;;7.30;5.63;;;15.60;52.80;;;;;;5012465;28;20057;-68
2022/03/29 03:09:02;;;;;;;6.32;5.22;;;;;;;;;;5013860;28;20403;-69
2022/03/29 03:11:29;;;;;;;6.55;5.20;;;15.60;60.20;;;;;;5013797;28;20129;-67
2022/03/29 03:13:55;;;;;;;6.65;5.20;;;15.60;60.10;;;;;;5012668;28;20049;-68
2022/03/29 03:16:23;;;;;;;8.02;5.60;;;;;;;;;;5013305;28;20041;-68
2022/03/29 03:18:49;;;;;;;6.75;5.47;;;15.50;59.80;;;;;;5014780;28;20049;-69
2022/03/29 03:21:16;;;;;;;6.43;5.10;;;;;;;;;;5013369;28;20283;-69
2022/03/29 03:23:44;;;;;;;6.43;5.43;;;15.60;60.20;;;;;;5013517;28;20420;-69
2022/03/29 03:26:11;;;;;;;7.28;5.50;;;;;;;;;;5013515;28;20046;-68
2022/03/29 03:28:38;;;;;;;7.70;4.97;;;;;;;;;;5012123;28;20112;-69
2022/03/29 03:31:05;;;;;;;6.07;5.05;;;15.50;59.90;;;;;;5012007;28;20057;-68
2022/03/29 03:33:32;;;;;;;7.72;5.35;;;;;;;;;;5013497;28;20088;-69
2022/03/29 03:35:59;;;;;;;7.05;5.40;;;15.20;56.20;;;;;;5014435;28;20133;-69
2022/03/29 03:38:26;;;;;;;6.25;5.00;;;;;;;;;;5013194;28;20085;-69
2022/03/29 03:40:54;;;;;;;6.20;5.10;;;15.50;52.80;;;;;;5012958;28;20054;-68
2022/03/29 03:43:21;;;;;;;6.45;5.72;;;;;;;;;;5013230;28;20045;-67
2022/03/29 03:45:48;;;;;;;7.32;5.15;;;15.00;59.60;;;;;;5011570;28;20049;-69
2022/03/29 03:48:15;;;;;;;6.68;5.10;;;15.30;59.80;;;;;;5012077;28;20145;-69
2022/03/29 03:50:41;;;;;;;6.15;4.78;;;15.50;59.80;;;;;;5012714;28;20057;-69
2022/03/29 03:53:08;;;;;;;8.35;5.10;;;15.60;60.30;;;;;;5012872;28;20050;-69
2022/03/29 03:55:35;;;;;;;6.22;5.18;;;;;;;;;;5011833;28;20061;-68
2022/03/29 03:58:03;;;;;;;5.50;4.80;;;15.40;60.20;;;;;;5011604;28;20058;-68
2022/03/29 04:00:30;;;;;;;6.78;5.53;;;15.50;60.20;;;;;;5012521;28;20377;-69
2022/03/29 04:02:57;;;;;;;7.65;5.28;;;15.50;59.90;;;;;;5011513;28;20049;-68
2022/03/29 04:05:26;;;;;;;6.68;5.35;;;15.50;56.60;;;;;;5012911;28;20050;-69
2022/03/29 04:07:53;;;;;;;6.00;4.85;;;15.50;59.90;;;;;;5012466;28;20092;-69
2022/03/29 04:10:20;;;;;;;7.20;5.35;;;;;;;;;;5012195;28;20420;-68
2022/03/29 04:12:48;;;;;;;6.32;5.03;;;;;;;;;;5012451;28;20448;-68
2022/03/29 04:15:16;;;;;;;6.95;5.22;;;15.50;53.30;;;;;;5012515;28;20048;-68
2022/03/29 04:17:43;;;;;;;5.53;4.32;;;;;;;;;;5012928;28;20413;-68
2022/03/29 04:20:11;;;;;;;7.60;4.88;;;15.10;59.70;;;;;;5012497;28;20419;-69
2022/03/29 04:22:38;;;;;;;6.75;4.78;;;15.20;59.90;;;;;;5012267;28;20064;-68
2022/03/29 04:25:05;;;;;;;5.88;4.55;;;15.50;59.00;;;;;;5012644;28;20049;-69
2022/03/29 04:27:32;;;;;;;5.50;4.60;;;;;;;;;;5011357;28;20057;-67
2022/03/29 04:29:59;;;;;;;5.63;4.68;;;15.70;59.90;;;;;;5012011;28;20056;-68
2022/03/29 04:32:27;;;;;;;5.95;4.53;;;15.10;59.50;;;;;;5012130;28;20058;-69
2022/03/29 04:34:54;;;;;;;7.63;5.30;;;15.00;59.40;;;;;;5012261;28;20416;-69
2022/03/29 04:37:24;;;;;;;6.10;4.85;;;;;;;;;;5011201;28;20058;-68
2022/03/29 04:39:51;;;;;;;6.07;4.53;;;;;;;;;;5011778;28;20548;-68
2022/03/29 04:42:18;;;;;;;7.30;5.10;;;15.60;59.70;;;;;;5011069;28;20054;-69
2022/03/29 04:44:45;;;;;;;6.20;4.88;;;15.70;56.70;;;;;;5011094;28;20057;-68
2022/03/29 04:47:11;;;;;;;6.38;5.18;;;15.60;59.70;;;;;;5011950;28;20488;-69
2022/03/29 04:49:40;;;;;;;7.57;5.28;;;15.70;59.70;;;;;;5012044;28;20050;-69
2022/03/29 04:52:07;;;;;;;6.60;5.07;;;;;;;;;;5012246;28;20504;-67
2022/03/29 04:54:34;;;;;;;6.47;4.75;;;15.10;59.40;;;;;;5012019;28;20077;-69
2022/03/29 04:57:02;;;;;;;6.95;4.82;;;15.40;59.50;;;;;;5011030;28;20054;-69
2022/03/29 04:59:29;;;;;;;5.57;4.55;;;;;;;;;;5010489;28;20060;-69
2022/03/29 05:01:56;;;;;;;6.18;4.75;;;15.60;59.70;;;;;;5011854;28;20056;-69
2022/03/29 05:04:23;;;;;;;6.70;4.82;;;15.60;59.90;;;;;;5012007;28;20089;-69
2022/03/29 05:06:51;;;;;;;5.70;4.60;;;15.20;59.30;;;;;;5010810;28;20076;-69
2022/03/29 05:09:17;;;;;;;6.97;5.03;;;15.70;59.80;;;;;;5011933;28;20056;-68
2022/03/29 05:11:45;;;;;;;7.80;4.68;;;;;;;;;;5011485;28;20503;-69
2022/03/29 05:14:12;;;;;;;7.05;4.78;;;;;;;;;;5010845;28;20072;-68
2022/03/29 05:16:38;;;;;;;6.40;4.75;;;15.70;59.50;;;;;;5011912;28;20065;-69
2022/03/29 05:19:05;;;;;;;6.13;4.53;;;;;;;;;;5012423;28;20064;-68
2022/03/29 05:21:32;;;;;;;6.80;4.80;;;;;;;;;;5014376;28;20064;-68
2022/03/29 05:24:00;;;;;;;8.77;4.88;;;15.70;52.50;;;;;;5014408;28;20054;-67
2022/03/29 05:26:27;;;;;;;6.20;4.70;;;15.80;59.50;;;;;;5015712;28;20049;-69
2022/03/29 05:28:54;;;;;;;6.90;4.50;;;15.40;58.60;;;;;;5015844;28;20045;-68
2022/03/29 05:31:21;;;;;;;6.35;4.65;;;15.70;59.40;;;;;;5014271;28;20489;-68
2022/03/29 05:33:48;;;;;;;7.53;4.80;;;;;;;;;;5015451;28;20046;-69
2022/03/29 05:36:15;;;;;;;6.22;4.57;;;15.70;59.60;;;;;;5015519;28;20052;-68
2022/03/29 05:38:48;;;;;;;6.88;4.55;;;15.70;53.50;;;;;;5015349;28;20052;-68
2022/03/29 05:41:19;;;;;;;7.30;5.13;;;15.20;58.50;;;;;;5014109;28;20136;-68
2022/03/29 05:43:47;;;;;;;6.47;5.10;;;;;;;;;;5021431;28;20132;-69
2022/03/29 05:48:59;;;;;;;6.75;4.63;;;;;;;;;;5015382;28;20654;-69
2022/03/29 05:51:26;;;;;;;6.35;5.18;;;;;;;;;;5015136;28;20053;-68
2022/03/29 05:53:54;;;;;;;6.13;4.57;;;15.90;59.40;;;;;;5015224;28;20046;-68
2022/03/29 05:56:22;;;;;;;8.27;4.88;;;15.90;52.50;;;;;;5014897;28;20451;-68
2022/03/29 05:58:49;;;;;;;5.72;4.38;;;15.60;57.10;;;;;;5015570;28;20527;-68
2022/03/29 06:01:17;;;;;;;5.53;4.28;;;;;;;;;;5034713;28;20056;-68
2022/03/29 06:03:45;;;;;;;6.07;4.90;;;;;;;;;;5008876;28;20041;-68
2022/03/29 06:06:13;;;;;;;5.78;4.65;;;15.80;59.60;;;;;;5014998;28;20054;-69
2022/03/29 06:08:40;;;;;;;5.63;4.50;;;15.80;58.00;;;;;;5014862;28;20054;-69
2022/03/29 06:11:07;;;;;;;6.07;4.53;;;15.80;59.50;;;;;;5013413;28;20057;-69
2022/03/29 06:13:35;;;;;;;5.82;4.70;;;15.90;59.60;;;;;;5014879;28;20052;-68
2022/03/29 06:16:02;;;;;;;6.18;4.65;;;15.80;59.20;;;;;;5025536;28;20397;-69
2022/03/29 06:18:30;;;;;;;7.10;5.20;;;15.90;59.60;;;;;;5034349;28;20576;-68
2022/03/29 06:20:57;;;;;;;6.45;4.50;;;;;;;;;;5034313;28;20491;-68
2022/03/29 06:23:24;;;;;;;6.20;4.60;;;15.80;59.20;;;;;;5033380;28;20053;-67
2022/03/29 06:25:51;;;;;;;7.57;5.25;;;15.70;59.20;;;;;;5033374;28;20439;-67
2022/03/29 06:28:17;;;;;;;7.75;4.78;;;15.20;58.40;;;;;;5033521;28;20484;-68
2022/03/29 06:30:46;;;;;;;6.28;4.90;;;15.30;59.00;;;;;;5033685;28;20100;-67
2022/03/29 06:33:14;;;;;;;7.97;4.95;;;;;;;;;;5029307;28;20048;-67
2022/03/29 06:35:41;;;;;;;6.32;4.80;;;;;;;;;;5034381;28;20052;-67
2022/03/29 06:38:08;;;;;;;6.68;5.18;;;15.50;59.00;;;;;;5033304;28;20495;-67
2022/03/29 06:40:35;;;;;;;7.25;4.82;;;15.80;59.40;;;;;;5031832;28;20049;-67
2022/03/29 06:43:02;;;;;;;6.47;5.10;;;16.10;54.10;;;;;;5034695;28;20068;-68
2022/03/29 06:45:28;;;;;;;10.23;5.18;;;15.40;58.90;;;;;;5034170;28;20055;-67
2022/03/29 06:47:57;;;;;;;11.18;5.88;;;15.90;59.10;;;;;;5024539;28;20060;-67
2022/03/29 06:50:24;;;;;;;8.45;5.72;;;15.70;56.70;;;;;;5014128;28;20056;-67
2022/03/29 06:52:51;;;;;;;10.75;6.93;;;15.90;59.20;;;;;;5024510;28;20049;-67
2022/03/29 06:55:18;;;;;;;12.10;6.65;;;15.80;52.10;;;;;;5023660;28;20072;-68
2022/03/29 06:57:45;;;;;;;11.95;6.80;;;15.90;59.20;;;;;;5027829;28;20048;-67
2022/03/29 07:00:13;;;;;;;8.85;5.80;;;15.80;52.10;;;;;;5033867;28;20417;-68
2022/03/29 07:02:40;;;;;;;9.27;5.32;;;15.90;59.00;;;;;;5033807;28;20056;-67
2022/03/29 07:05:09;;;;;;;7.65;5.40;;;16.00;59.10;;;;;;5014614;28;20057;-67
2022/03/29 07:07:38;;;;;;;9.50;5.22;;;15.90;59.30;;;;;;5012700;28;20128;-67
2022/03/29 07:12:50;;;;;;;8.00;5.45;;;16.80;59.60;;;;;;5021126;28;20049;-67
2022/03/29 07:15:17;;;;;;;8.65;5.35;;;15.90;59.10;;;;;;5032727;28;20423;-67
2022/03/29 07:17:44;;;;;;;6.97;5.18;;;15.90;59.10;;;;;;5033732;28;20049;-67
2022/03/29 07:20:12;;;;;;;8.32;5.47;;;15.90;52.20;;;;;;5023197;28;20042;-67
2022/03/29 07:22:39;;;;;;;8.60;5.50;;;16.10;58.70;;;;;;5012703;28;20056;-67
2022/03/29 07:25:06;;;;;;;6.95;4.82;;;15.90;58.80;;;;;;5013626;28;20485;-67
2022/03/29 07:27:33;;;;;;;8.18;5.20;;;16.00;58.90;;;;;;5012687;28;20064;-66
2022/03/29 07:30:03;;;;;;;7.70;5.15;;;15.90;58.80;;;;;;5012042;28;20411;-68
2022/03/29 07:32:30;;;;;;;7.30;4.97;;;15.50;58.70;;;;;;5013674;28;20049;-67
2022/03/29 07:34:57;;;;;;;7.05;4.88;;;;;;;;;;5012144;28;20064;-69
2022/03/29 07:37:25;;;;;;;7.90;5.18;;;16.10;59.00;;;;;;5013298;28;20056;-67
2022/03/29 07:39:53;;;;;;;7.00;4.93;;;16.10;58.90;;;;;;5013290;28;20412;-67
2022/03/29 07:42:21;;;;;;;6.85;4.60;;;15.80;58.50;;;;;;5015453;28;20056;-67
2022/03/29 07:44:49;;;;;;;9.25;5.28;;;16.10;58.90;;;;;;5022419;28;20076;-67
2022/03/29 07:47:17;;;;;;;7.72;5.20;;;17.00;59.10;;;;;;5019663;28;20396;-67
2022/03/29 07:49:44;;;;;;;7.22;4.88;;;16.10;58.60;;;;;;5022551;28;20053;-67
2022/03/29 07:52:11;;;;;;;7.70;4.65;;;16.20;58.60;;;;;;5020601;28;20243;-67
2022/03/29 07:54:39;;;;;;;7.63;5.32;;;15.40;58.30;;;;;;5020583;28;20053;-67
2022/03/29 07:57:08;;;;;;;7.55;5.10;;;15.50;58.00;;;;;;5019691;28;20408;-67
2022/03/29 07:59:37;;;;;;;6.43;4.57;;;15.60;58.20;;;;;;5012490;28;20046;-67
2022/03/29 08:02:04;;;;;;;7.72;4.57;;;16.20;58.50;;;;;;5020954;28;20109;-69
2022/03/29 08:04:31;;;;;;;6.88;4.70;;;16.70;58.70;;;;;;5022632;28;20045;-67
2022/03/29 08:06:58;;;;;;;6.40;4.45;;;;;;;;;;5023547;28;20050;-69
2022/03/29 08:09:25;;;;;;;6.82;4.47;;;15.80;58.10;;;;;;5021419;28;20057;-68
2022/03/29 08:11:55;;;;;;;5.57;4.30;;;15.60;55.30;;;;;;5021315;28;20058;-67
2022/03/29 08:14:21;;;;;;;7.15;4.65;;;15.60;57.90;;;;;;5019446;28;20485;-67
2022/03/29 08:16:48;;;;;;;6.05;4.43;;;15.70;54.20;;;;;;5022099;28;20057;-68
2022/03/29 08:19:15;;;;;;;8.20;4.80;;;15.80;58.20;;;;;;5021413;28;20128;-67
2022/03/29 08:21:52;;;;;;;6.90;4.63;;;;;;;;;;5021838;28;20057;-69
2022/03/29 08:24:19;;;;;;;5.43;4.03;;;16.00;58.30;;;;;;5015913;28;20050;-67
2022/03/29 08:26:46;;;;;;;6.50;4.22;;;16.40;58.50;;;;;;5012652;28;20108;-67
2022/03/29 08:29:16;;;;;;;6.13;4.65;;;16.30;58.30;;;;;;5011541;28;20061;-67
2022/03/29 08:31:43;;;;;;;6.20;4.18;;;16.50;58.50;;;;;;5012425;28;20096;-67
2022/03/29 08:34:09;;;;;;;7.75;4.78;;;16.40;58.50;;;;;;5012392;28;20510;-67
2022/03/29 08:36:38;;;;;;;6.53;4.50;;;16.40;58.10;;;;;;5011982;28;20065;-71
2022/03/29 08:39:05;;;;;;;6.18;4.65;;;;;;;;;;5012408;28;20504;-69
2022/03/29 08:41:36;;;;;;;5.55;4.10;;;16.90;58.40;;;;;;5016541;28;20061;-70
2022/03/29 08:44:03;;;;;;;6.55;4.10;;;;;;;;;;5020908;28;20049;-69
2022/03/29 08:46:35;;;;;;;6.00;4.43;;;16.60;57.80;;;;;;5020664;28;20054;-70
2022/03/29 08:49:02;;;;;;;5.95;4.20;;;16.50;58.10;;;;;;5021479;28;20049;-70
2022/03/29 08:51:29;;;;;;;6.20;3.97;;;16.20;52.90;;;;;;5021978;28;20117;-70
2022/03/29 08:53:56;;;;;;;7.30;4.35;;;15.90;57.60;;;;;;5018897;28;20046;-70
2022/03/29 08:56:22;;;;;;;5.68;4.22;;;16.50;57.70;;;;;;5018226;28;20134;-70
2022/03/29 08:58:49;;;;;;;7.70;4.25;;;16.50;51.10;;;;;;5011021;28;20060;-69
2022/03/29 09:01:19;;;;;;;6.60;4.20;;;15.90;57.30;;;;;;5010949;28;20054;-70
2022/03/29 09:03:47;;;;;;;4.43;3.42;;;15.80;56.10;;;;;;5011856;28;20053;-70
2022/03/29 09:06:14;;;;;;;5.85;4.15;;;16.70;57.60;;;;;;5012769;28;20121;-70
2022/03/29 09:08:44;;;;;;;5.15;4.13;;;16.90;57.70;;;;;;5011563;28;20412;-69
2022/03/29 09:11:12;;;;;;;6.28;3.95;;;16.60;57.60;;;;;;5010161;28;20050;-69
2022/03/29 09:13:39;;;;;;;5.68;3.83;;;16.70;57.60;;;;;;5010434;28;20058;-69
2022/03/29 09:16:07;;;;;;;7.15;3.45;;;16.50;57.60;;;;;;5017754;28;20049;-69
2022/03/29 09:18:34;;;;;;;6.40;3.70;;;;;;;;;;5030423;28;20049;-68
2022/03/29 09:21:11;;;;;;;5.68;3.92;;;16.60;57.40;;;;;;5031032;28;20504;-69
2022/03/29 09:23:38;;;;;;;6.68;4.13;;;;;;;;;;5030969;28;20476;-68
2022/03/29 09:26:05;;;;;;;5.28;3.92;;;15.90;57.30;;;;;;5030513;28;20069;-69
2022/03/29 09:28:35;;;;;;;5.88;3.65;;;18.50;52.00;;;;;;5030645;28;20060;-70
2022/03/29 09:31:02;;;;;;;5.70;3.45;;;16.80;56.10;;;;;;5029960;28;20049;-69
2022/03/29 09:33:30;;;;;;;7.10;4.22;;;17.00;58.00;;;;;;5030969;28;20496;-69
2022/03/29 09:35:58;;;;;;;5.53;3.75;;;16.70;57.90;;;;;;5031413;28;20050;-69
2022/03/29 09:38:27;;;;;;;4.80;3.60;;;16.70;57.90;;;;;;5030486;28;20053;-69
2022/03/29 09:40:54;;;;;;;7.30;3.70;;;16.70;57.90;;;;;;5029868;28;20064;-70
2022/03/29 09:43:22;;;;;;;5.82;3.72;;;16.80;57.60;;;;;;5031704;28;20393;-69
2022/03/29 09:45:50;;;;;;;6.95;3.90;;;15.80;56.10;;;;;;5031119;28;20053;-69
2022/03/29 09:48:24;;;;;;;6.50;3.88;;;17.20;58.00;;;;;;5019673;28;20116;-69
2022/03/29 09:50:53;;;;;;;4.85;3.60;;;16.80;52.90;;;;;;5010075;28;20056;-68
2022/03/29 09:53:41;;;;;;;7.78;3.78;;;16.70;51.20;;;;;;5011810;28;20046;-68
2022/03/29 09:56:08;;;;;;;9.57;4.05;;;16.90;58.10;;;;;;5011850;28;20136;-68
2022/03/29 09:58:35;;;;;;;6.40;3.67;;;16.80;58.10;;;;;;5011527;28;20054;-69
2022/03/29 10:01:02;;;;;;;6.43;3.88;;;16.70;58.20;;;;;;5011307;28;20050;-68
2022/03/29 10:03:29;;;;;;;6.57;3.45;;;17.10;58.40;;;;;;5017682;28;20087;-68
2022/03/29 10:06:01;;;;;;;6.68;4.03;;;16.80;58.20;;;;;;5032994;28;20550;-68
2022/03/29 10:11:14;;;;;;;8.93;4.03;;;16.70;58.40;;;;;;5033071;28;20061;-67
2022/03/29 10:13:41;;;;;;;5.63;3.80;;;15.80;55.90;;;;;;5033409;28;20049;-68
2022/03/29 10:16:11;;;;;;;7.03;3.88;;;16.70;58.50;;;;;;5033731;28;20523;-69
2022/03/29 10:18:37;;;;;;;7.03;3.90;;;16.90;58.00;;;;;;5032086;28;20516;-68
2022/03/29 10:21:05;;;;;;;6.22;4.10;;;16.50;57.70;;;;;;5013537;28;20045;-68
2022/03/29 10:23:32;;;;;;;7.22;4.00;;;16.40;55.70;;;;;;5013502;28;20518;-69
2022/03/29 10:26:00;;;;;;;5.15;3.60;;;;;;;;;;5014945;28;20480;-68
2022/03/29 10:28:28;;;;;;;5.60;4.00;;;16.70;58.00;;;;;;5014021;28;20054;-69
2022/03/29 10:30:54;;;;;;;7.63;4.05;;;16.70;57.80;;;;;;5018657;28;20046;-68
2022/03/29 10:33:23;;;;;;;6.13;3.53;;;15.70;57.10;;;;;;5025176;28;20042;-67
2022/03/29 10:36:03;;;;;;;6.82;3.88;;;17.00;58.10;;;;;;5013685;28;20042;-68
2022/03/29 10:38:58;;;;;;;6.65;3.95;;;16.60;51.20;;;;;;5019775;28;20507;-68
2022/03/29 10:41:51;;;;;;;6.40;4.30;;;16.60;58.00;;;;;;5018842;28;20068;-65
2022/03/29 10:44:19;;;;;;;6.15;3.78;;;15.60;57.20;;;;;;5042646;28;20049;-67
2022/03/29 10:46:48;;;;;;;5.78;3.50;;;16.70;55.80;;;;;;5019423;28;20048;-68
2022/03/29 10:49:20;;;;;;;6.32;3.70;;;16.90;57.90;;;;;;5021990;28;20042;-68
2022/03/29 10:51:47;;;;;;;5.65;3.65;;;16.70;57.90;;;;;;5020594;28;20053;-68
2022/03/29 10:54:32;;;;;;;6.32;4.03;;;16.60;51.10;;;;;;5022029;28;20089;-68
2022/03/29 10:57:00;;;;;;;4.03;3.42;;;16.50;57.90;;;;;;5019662;28;20061;-67
2022/03/29 10:59:29;;;;;;;6.60;3.80;;;16.20;57.30;;;;;;5023432;28;20045;-68
2022/03/29 11:02:07;;;;;;;6.57;4.05;;;17.20;58.00;;;;;;5022972;28;20049;-67
2022/03/29 11:04:34;;;;;;;5.55;3.40;;;16.60;58.00;;;;;;5019521;28;20088;-68
2022/03/29 11:07:14;;;;;;;6.47;3.85;;;16.60;57.60;;;;;;5016131;28;20393;-67
2022/03/29 11:09:44;;;;;;;7.90;3.72;;;16.50;53.80;;;;;;5039066;28;20072;-67
2022/03/29 11:12:43;;;;;;;10.55;5.05;;;15.80;52.50;;;;;;5025165;28;20045;-67
2022/03/29 11:15:46;;;;;;;16.85;7.55;;;16.80;58.10;;;;;;5026777;28;20137;-67
2022/03/29 11:18:42;;;;;;;13.82;7.10;;;15.60;53.60;;;;;;5032057;28;20059;-66
2022/03/29 11:21:10;;;;;;;15.57;7.93;;;16.70;58.00;;;;;;5033369;28;20061;-67
2022/03/29 11:23:38;;;;;;;14.07;8.02;;;16.50;51.00;;;;;;5032349;28;20053;-70
2022/03/29 11:26:06;;;;;;;15.85;7.72;;;16.70;57.90;;;;;;5033383;28;20467;-69
2022/03/29 11:28:32;;;;;;;15.90;7.53;;;17.20;58.20;;;;;;5025991;28;20053;-67
2022/03/29 11:30:59;;;;;;;14.00;6.97;;;17.30;53.70;;;;;;5012229;28;20061;-67
2022/03/29 11:33:31;;;;;;;15.23;7.22;;;16.60;50.80;;;;;;5012586;28;20408;-69
2022/03/29 11:35:59;;;;;;;15.48;6.93;;;16.70;57.50;;;;;;5012346;28;20058;-67
2022/03/29 11:38:27;;;;;;;71.22;21.23;;;16.60;57.70;;;;;;5012303;28;20050;-67
2022/03/29 11:40:53;;;;;;;131.50;38.35;;;16.70;52.10;;;;;;5015942;28;20054;-68
2022/03/29 11:43:23;;;;;;;183.57;47.30;;;17.30;57.80;;;;;;5032137;28;20060;-67
2022/03/29 11:45:53;;;;;;;298.60;84.53;;;17.20;57.70;;;;;;5031932;28;20060;-67
2022/03/29 11:48:21;;;;;;;259.42;80.03;;;16.70;52.70;;;;;;5032990;28;20522;-68
2022/03/29 11:50:51;;;;;;;280.55;80.45;;;16.60;52.60;;;;;;5029978;28;20518;-68
2022/03/29 11:53:24;;;;;;;313.38;86.30;;;16.80;53.40;;;;;;5015633;28;20057;-68
2022/03/29 11:55:58;;;;;;;286.88;88.35;;;17.30;58.00;;;;;;5020441;28;20056;-67
2022/03/29 11:58:28;;;;;;;261.88;82.25;;;16.70;51.30;;;;;;5018522;28;20057;-69
2022/03/29 12:00:59;;;;;;;295.55;87.80;;;16.90;57.80;;;;;;5015161;28;20439;-67
2022/03/29 12:03:27;;;;;;;328.00;96.47;;;16.80;54.70;;;;;;5023072;28;20448;-69
2022/03/29 12:06:10;;;;;;;292.90;87.07;;;16.80;54.10;;;;;;5021426;28;20049;-69
2022/03/29 12:08:51;;;;;;;280.75;92.10;;;16.50;57.90;;;;;;5022281;28;20555;-70
2022/03/29 12:11:19;;;;;;;273.35;87.40;;;16.80;51.30;;;;;;5012255;28;20045;-68
2022/03/29 12:13:46;;;;;;;272.27;86.97;;;16.70;57.90;;;;;;5012370;28;20052;-70
2022/03/29 12:16:23;;;;;;;286.40;86.45;;;16.10;57.50;;;;;;5026664;28;20065;-69
2022/03/29 12:18:50;;;;;;;268.05;88.15;;;15.90;57.50;;;;;;5011580;28;20087;-70
2022/03/29 12:21:18;;;;;;;247.32;84.05;;;16.40;57.70;;;;;;5011258;28;20046;-70
2022/03/29 12:23:47;;;;;;;252.77;82.82;;;17.60;58.10;;;;;;5044513;28;20068;-69
2022/03/29 12:26:14;;;;;;;225.05;77.30;;;17.00;58.00;;;;;;5051286;28;20049;-70
2022/03/29 12:28:41;;;;;;;223.60;75.25;;;16.70;53.30;;;;;;5050956;28;20144;-69
2022/03/29 12:31:11;;;;;;;229.55;74.80;;;17.00;57.70;;;;;;5051943;28;20063;-69
2022/03/29 12:33:38;;;;;;;200.77;71.63;;;16.70;57.80;;;;;;5050780;28;20057;-69
2022/03/29 12:36:06;;;;;;;191.13;71.05;;;15.90;57.00;;;;;;5024767;28;20053;-69
2022/03/29 12:38:43;;;;;;;192.98;70.22;;;16.00;57.30;;;;;;5031007;28;20067;-68
2022/03/29 12:41:12;;;;;;;205.23;74.70;;;16.20;57.30;;;;;;5017754;28;20053;-68
2022/03/29 12:43:39;;;;;;;191.73;69.90;;;16.90;52.70;;;;;;5012536;28;20451;-68
2022/03/29 12:46:12;;;;;;;208.55;73.78;;;16.80;57.40;;;;;;5023568;28;20493;-67
2022/03/29 12:48:41;;;;;;;195.30;71.40;;;16.80;50.80;;;;;;5017054;28;20046;-67
2022/03/29 12:51:08;;;;;;;230.13;100.05;;;15.90;56.60;;;;;;5022433;28;20045;-67
2022/03/29 12:53:35;;;;;;;211.93;82.50;;;16.90;57.50;;;;;;5019566;28;20046;-68
2022/03/29 12:56:09;;;;;;;201.20;75.43;;;16.90;57.40;;;;;;5019380;28;20049;-68
2022/03/29 12:58:38;;;;;;;203.15;74.15;;;16.90;57.70;;;;;;5020832;28;20080;-68
2022/03/29 13:01:05;;;;;;;192.43;74.50;;;16.70;57.30;;;;;;5021277;28;20058;-68
2022/03/29 13:03:37;;;;;;;194.77;75.45;;;17.50;58.10;;;;;;5022824;28;20091;-68
2022/03/29 13:06:04;;;;;;;179.63;69.05;;;17.00;57.60;;;;;;5020671;28;20051;-68
2022/03/29 13:08:31;;;;;;;172.43;69.03;;;17.30;58.00;;;;;;5019405;28;20062;-68
2022/03/29 13:10:57;;;;;;;158.52;67.50;;;17.70;57.90;;;;;;5020376;28;20038;-68
2022/03/29 13:13:28;;;;;;;165.90;66.45;;;17.70;58.10;;;;;;5018269;28;20049;-68
2022/03/29 13:15:56;;;;;;;177.30;71.55;;;16.70;57.40;;;;;;5022327;28;20476;-68
2022/03/29 13:18:30;;;;;;;165.43;67.15;;;16.50;57.30;;;;;;5020471;28;20053;-67